Time;durP1;ratioP1;P1;durP2;ratioP2;P2;SDS_P1;SDS_P2;PMS_P1;PMS_P2;Temp;Humidity;BMP_temperature;BMP_pressure;BME280_temperature;BME280_humidity;BME280_pressure;Samples;Min_cycle;Max_cycle;Signal;HPM_P1;HPM_P2
2022/02/05 00:00:44;;;;;;;;;;;;;;;5.72;100.00;97538.40;1624280;87;24515;-84
2022/02/05 00:03:39;;;;;;;;;;;;;;;5.71;100.00;97529.78;1584131;88;20269;-84
2022/02/05 00:05:51;;;;;;;;;;;;;;;5.71;100.00;97527.64;1627999;86;24403;-84
2022/02/05 00:43:16;;;;;;;;;;;;;;;5.80;100.00;97543.45;1619488;87;20305;-84
2022/02/05 00:45:46;;;;;;;;;;;;;;;5.81;100.00;97533.90;1623764;87;24757;-84
2022/02/05 00:48:12;;;;;;;;;;;;;;;5.81;100.00;97515.27;1588014;88;21984;-87
2022/02/05 00:50:44;;;;;;;;;;;;;;;5.80;100.00;97512.76;1618681;87;26710;-87
2022/02/05 00:53:14;;;;;;;;;;;;;;;5.81;100.00;97523.05;1624937;87;24576;-87
2022/02/05 00:55:44;;;;;;;;;;;;;;;5.82;100.00;97523.89;1580229;89;20765;-87
2022/02/05 00:58:10;;;;;;;;;;;;;;;5.84;100.00;97538.41;1626012;87;25526;-87
2022/02/05 01:00:37;;;;;;;;;;;;;;;5.86;100.00;97534.43;1629163;87;22246;-87
2022/02/05 01:03:04;;;;;;;;;;;;;;;5.87;100.00;97529.17;1652840;86;26855;-87
2022/02/05 01:05:38;;;;;;;;;;;;;;;5.91;100.00;97536.29;1652899;87;25268;-87
2022/02/05 01:08:04;;;;;;;;;;;;;;;5.91;100.00;97531.09;1671514;85;20349;-87
2022/02/05 01:10:30;;;;;;;;;;;;;;;5.94;100.00;97530.08;1653367;87;24716;-87
2022/02/05 01:13:03;;;;;;;;;;;;;;;5.95;100.00;97529.12;1677447;85;22201;-87
2022/02/05 01:15:33;;;;;;;;;;;;;;;5.95;100.00;97516.14;1673434;83;26614;-87
2022/02/05 01:18:00;;;;;;;;;;;;;;;5.92;100.00;97514.59;1662411;85;24083;-87
2022/02/05 01:23:10;;;;;;;;;;;;;;;5.91;100.00;97506.89;1649880;86;24792;-88
2022/02/05 01:25:40;;;;;;;;;;;;;;;5.89;100.00;97513.51;1653171;86;22232;-87
2022/02/05 01:28:17;;;;;;;;;;;;;;;5.86;100.00;97505.41;1671010;84;27014;-89
2022/02/05 01:30:44;;;;;;;;;;;;;;;5.86;100.00;97504.57;1667947;85;24540;-84
2022/02/05 01:57:22;;;;;;;;;;;;;;;5.65;100.00;97507.27;1670820;85;24370;-87
2022/02/05 02:05:13;;;;;;;;;;;;;;;5.64;100.00;97523.31;1605401;88;22021;-90
2022/02/05 02:16:21;;;;;;;;;;;;;;;5.65;100.00;97525.44;1659488;85;24979;-89
2022/02/05 02:18:50;;;;;;;;;;;;;;;5.65;100.00;97526.73;1658913;84;22001;-85
2022/02/05 02:23:58;;;;;;;;;;;;;;;5.69;100.00;97523.00;1664351;84;24501;-89
2022/02/05 02:26:30;;;;;;;;;;;;;;;5.71;100.00;97520.69;1656259;84;20260;-90
2022/02/05 02:31:18;;;;;;;;;;;;;;;5.75;100.00;97511.77;1661326;84;22698;-84
2022/02/05 02:33:45;;;;;;;;;;;;;;;5.77;100.00;97502.13;1656075;85;26005;-84
2022/02/05 02:36:12;;;;;;;;;;;;;;;5.78;100.00;97502.47;1659141;85;24515;-84
2022/02/05 02:38:45;;;;;;;;;;;;;;;5.77;100.00;97496.94;1659921;85;20184;-84
2022/02/05 02:41:12;;;;;;;;;;;;;;;5.75;100.00;97475.42;1656112;85;24896;-83
2022/02/05 02:43:40;;;;;;;;;;;;;;;5.76;100.00;97493.97;1652622;84;22160;-84
2022/02/05 02:46:07;;;;;;;;;;;;;;;5.75;100.00;97495.36;1661441;84;26064;-89
2022/02/05 02:48:33;;;;;;;;;;;;;;;5.76;100.00;97486.64;1666305;84;24495;-88
2022/02/05 02:56:31;;;;;;;;;;;;;;;5.79;100.00;97502.84;1666220;84;22226;-84
2022/02/05 02:58:57;;;;;;;;;;;;;;;5.79;100.00;97498.11;1659036;84;26059;-88
2022/02/05 03:01:24;;;;;;;;;;;;;;;5.80;100.00;97496.72;1658343;84;21845;-84
2022/02/05 03:03:52;;;;;;;;;;;;;;;5.83;100.00;97499.13;1614700;87;20333;-87
2022/02/05 03:06:18;;;;;;;;;;;;;;;5.83;100.00;97495.23;1599079;88;24373;-87
2022/02/05 03:08:47;;;;;;;;;;;;;;;5.87;100.00;97501.91;1616484;87;22135;-88
2022/02/05 03:11:13;;;;;;;;;;;;;;;5.90;100.00;97499.56;1617099;87;26776;-88
2022/02/05 03:13:39;;;;;;;;;;;;;;;5.92;100.00;97504.20;1624923;87;24617;-88
2022/02/05 03:16:07;;;;;;;;;;;;;;;5.94;100.00;97508.01;1613292;87;20223;-89
2022/02/05 03:18:47;;;;;;;;;;;;;;;5.95;100.00;97510.94;1616020;87;24727;-87
2022/02/05 03:21:09;;;;;;;;;;;;;;;5.97;100.00;97516.41;1617050;87;22037;-84
2022/02/05 03:23:35;;;;;;;;;;;;;;;5.98;100.00;97518.55;1599943;88;26109;-86
2022/02/05 03:26:01;;;;;;;;;;;;;;;5.99;100.00;97524.11;1610101;88;24460;-87
2022/02/05 03:28:28;;;;;;;;;;;;;;;5.99;100.00;97517.63;1621447;87;20246;-86
2022/02/05 03:30:54;;;;;;;;;;;;;;;6.00;100.00;97519.30;1597611;88;24581;-84
2022/02/05 03:33:21;;;;;;;;;;;;;;;6.00;100.00;97517.50;1571534;90;22047;-84
2022/02/05 03:35:47;;;;;;;;;;;;;;;6.03;100.00;97516.48;1611389;88;26066;-90
2022/02/05 03:38:19;;;;;;;;;;;;;;;6.03;100.00;97526.41;1607586;88;24392;-89
2022/02/05 03:40:45;;;;;;;;;;;;;;;6.01;100.00;97520.47;1623780;87;20246;-84
2022/02/05 03:43:11;;;;;;;;;;;;;;;5.99;100.00;97526.25;1614604;87;25017;-84
2022/02/05 03:45:37;;;;;;;;;;;;;;;5.98;100.00;97532.83;1619420;87;22046;-88
2022/02/05 03:48:11;;;;;;;;;;;;;;;5.97;100.00;97545.45;1612471;87;26025;-89
2022/02/05 03:50:43;;;;;;;;;;;;;;;5.98;100.00;97551.84;1594894;88;24687;-90
2022/02/05 03:53:09;;;;;;;;;;;;;;;5.95;100.00;97549.43;1593661;88;20229;-84
2022/02/05 03:55:35;;;;;;;;;;;;;;;5.85;100.00;97537.48;1572185;89;24971;-88
2022/02/05 03:58:01;;;;;;;;;;;;;;;5.92;100.00;97560.03;1601295;88;22209;-84
2022/02/05 04:00:28;;;;;;;;;;;;;;;5.91;100.00;97575.23;1603813;88;26145;-90
2022/02/05 04:02:59;;;;;;;;;;;;;;;5.91;100.00;97593.41;1619830;86;25133;-88
2022/02/05 04:05:25;;;;;;;;;;;;;;;5.90;100.00;97585.25;1641661;86;20346;-88
2022/02/05 04:07:54;;;;;;;;;;;;;;;5.88;100.00;97581.48;1625265;87;24740;-89
2022/02/05 04:10:27;;;;;;;;;;;;;;;5.88;100.00;97611.80;1656922;85;22312;-88
2022/02/05 04:15:59;;;;;;;;;;;;;;;5.89;100.00;97592.20;1634995;86;24492;-84
2022/02/05 04:18:25;;;;;;;;;;;;;;;5.89;100.00;97611.68;1630780;86;20338;-85
2022/02/05 04:20:51;;;;;;;;;;;;;;;5.90;100.00;97634.59;1604734;87;24733;-87
2022/02/05 04:23:18;;;;;;;;;;;;;;;5.89;100.00;97629.86;1624169;86;21910;-91
2022/02/05 04:25:48;;;;;;;;;;;;;;;5.92;100.00;97629.30;1615683;88;26581;-87
2022/02/05 04:28:14;;;;;;;;;;;;;;;5.95;100.00;97625.20;1660128;84;24529;-87
2022/02/05 04:30:49;;;;;;;;;;;;;;;5.95;100.00;97622.60;1653005;84;20329;-88
2022/02/05 04:33:24;;;;;;;;;;;;;;;5.97;100.00;97631.98;1661973;84;24781;-89
2022/02/05 04:35:50;;;;;;;;;;;;;;;5.96;100.00;97654.97;1660614;84;22293;-88
2022/02/05 04:38:19;;;;;;;;;;;;;;;5.96;100.00;97660.17;1644417;84;21088;-88
2022/02/05 04:40:54;;;;;;;;;;;;;;;5.92;100.00;97661.30;1664079;84;24507;-85
2022/02/05 04:46:34;;;;;;;;;;;;;;;5.81;100.00;97665.84;1643676;86;24802;-84
2022/02/05 04:52:18;;;;;;;;;;;;;;;5.72;100.00;97665.13;1611176;86;26659;-87
2022/02/05 05:01:53;;;;;;;;;;;;;;;5.64;100.00;97776.83;1633869;86;22033;-86
2022/02/05 05:09:57;;;;;;;;;;;;;;;4.84;100.00;97789.78;1664388;84;20493;-88
2022/02/05 05:20:41;;;;;;;;;;;;;;;4.23;100.00;97829.07;1659057;84;24562;-87
2022/02/05 05:23:07;;;;;;;;;;;;;;;4.13;100.00;97839.09;1656718;84;20270;-87
2022/02/05 05:25:33;;;;;;;;;;;;;;;4.07;100.00;97841.55;1639394;86;24749;-88
2022/02/05 05:27:59;;;;;;;;;;;;;;;4.04;100.00;97849.92;1661043;84;21998;-88
2022/02/05 05:30:25;;;;;;;;;;;;;;;4.01;100.00;97847.51;1633740;86;21132;-87
2022/02/05 05:33:00;;;;;;;;;;;;;;;3.98;100.00;97854.16;1665162;84;24601;-88
2022/02/05 05:35:26;;;;;;;;;;;;;;;4.00;100.00;97861.36;1636061;86;20186;-88
2022/02/05 05:37:52;;;;;;;;;;;;;;;3.98;100.00;97865.80;1639950;86;20754;-84
2022/02/05 05:40:19;;;;;;;;;;;;;;;3.98;100.00;97876.16;1637787;86;22140;-84
2022/02/05 05:42:52;;;;;;;;;;;;;;;3.96;100.00;97881.86;1661095;84;26145;-83
2022/02/05 05:45:39;;;;;;;;;;;;;;;3.96;100.00;97876.69;1660918;84;25142;-87
2022/02/05 05:47:58;;;;;;;;;;;;;;;3.92;100.00;97877.77;1661477;85;20618;-84
2022/02/05 05:53:15;;;;;;;;;;;;;;;3.89;100.00;97881.34;1675605;85;22706;-84
2022/02/05 05:55:50;;;;;;;;;;;;;;;3.89;100.00;97885.67;1657138;85;26090;-88
2022/02/05 05:58:17;;;;;;;;;;;;;;;3.87;100.00;97887.08;1643384;86;24444;-84
2022/02/05 06:00:44;;;;;;;;;;;;;;;3.86;100.00;97893.61;1642494;86;20249;-89
2022/02/05 06:03:11;;;;;;;;;;;;;;;3.87;100.00;97899.17;1602810;86;20178;-89
2022/02/05 06:05:38;;;;;;;;;;;;;;;3.87;100.00;97905.64;1643203;86;22003;-88
2022/02/05 06:08:16;;;;;;;;;;;;;;;3.86;100.00;97913.02;1629255;86;26693;-88
2022/02/05 06:10:43;;;;;;;;;;;;;;;3.85;100.00;97916.52;1616566;86;24415;-84
2022/02/05 06:13:15;;;;;;;;;;;;;;;3.82;100.00;97933.03;1603294;89;20231;-89
2022/02/05 06:15:43;;;;;;;;;;;;;;;3.81;100.00;97927.95;1599833;88;24839;-89
2022/02/05 06:18:09;;;;;;;;;;;;;;;3.81;100.00;97937.02;1625478;86;22915;-88
2022/02/05 06:20:38;;;;;;;;;;;;;;;3.76;100.00;97947.11;1616865;87;26248;-88
2022/02/05 06:23:05;;;;;;;;;;;;;;;3.73;100.00;97956.80;1624679;86;24432;-88
2022/02/05 06:25:32;;;;;;;;;;;;;;;3.70;100.00;97962.13;1597160;89;20309;-88
2022/02/05 06:27:59;;;;;;;;;;;;;;;3.67;100.00;97959.23;1629871;86;24810;-89
2022/02/05 06:30:25;;;;;;;;;;;;;;;3.60;100.00;97969.98;1622209;86;22073;-87
2022/02/05 06:32:51;;;;;;;;;;;;;;;3.60;100.00;97980.33;1590559;90;26001;-88
2022/02/05 06:35:23;;;;;;;;;;;;;;;3.59;100.00;97978.64;1617614;87;24519;-89
2022/02/05 06:37:51;;;;;;;;;;;;;;;3.57;100.00;97982.59;1592526;89;20151;-88
2022/02/05 06:40:17;;;;;;;;;;;;;;;3.58;100.00;97976.97;1637037;86;24777;-88
2022/02/05 06:42:49;;;;;;;;;;;;;;;3.58;100.00;97995.07;1633468;86;22759;-88
2022/02/05 06:45:15;;;;;;;;;;;;;;;3.57;100.00;97994.23;1657778;85;26004;-88
2022/02/05 06:47:42;;;;;;;;;;;;;;;3.53;100.00;97996.59;1663202;85;24491;-88
2022/02/05 06:50:08;;;;;;;;;;;;;;;3.51;100.00;98007.46;1656226;85;20323;-89
2022/02/05 06:52:35;;;;;;;;;;;;;;;3.47;100.00;98011.12;1634848;86;24732;-85
2022/02/05 06:55:01;;;;;;;;;;;;;;;3.44;100.00;98019.00;1631438;86;21987;-85
2022/02/05 06:57:27;;;;;;;;;;;;;;;3.39;100.00;98017.09;1623103;87;26056;-89
2022/02/05 06:59:53;;;;;;;;;;;;;;;3.36;100.00;98028.44;1589573;88;24583;-88
2022/02/05 07:02:19;;;;;;;;;;;;;;;3.36;100.00;98034.91;1613459;87;20475;-85
2022/02/05 07:04:47;;;;;;;;;;;;;;;3.30;100.00;98035.64;1597182;88;24804;-84
2022/02/05 07:07:13;;;;;;;;;;;;;;;3.26;100.00;98032.38;1670908;84;22015;-84
2022/02/05 07:09:39;;;;;;;;;;;;;;;3.25;100.00;98036.32;1665514;84;26043;-88
2022/02/05 07:12:09;;;;;;;;;;;;;;;3.24;100.00;98036.77;1671561;84;24489;-88
2022/02/05 07:14:55;;;;;;;;;;;;;;;3.24;100.00;98050.16;1626776;86;20266;-88
2022/02/05 07:17:23;;;;;;;;;;;;;;;3.22;100.00;98051.95;1626090;86;24821;-85
2022/02/05 07:22:13;;;;;;;;;;;;;;;3.27;100.00;98057.78;1663235;84;26136;-89
2022/02/05 07:29:51;;;;;;;;;;;;;;;3.26;100.00;98072.91;1649195;86;24788;-88
2022/02/05 07:32:17;;;;;;;;;;;;;;;3.29;100.00;98076.63;1663707;84;20239;-88
2022/02/05 07:34:53;;;;;;;;;;;;;;;3.34;100.00;98082.42;1632435;86;25947;-89
2022/02/05 07:37:19;;;;;;;;;;;;;;;3.36;100.00;98080.62;1631247;86;24463;-88
2022/02/05 07:39:54;;;;;;;;;;;;;;;3.42;100.00;98092.42;1607227;88;20326;-89
2022/02/05 07:42:23;;;;;;;;;;;;;;;3.46;100.00;98091.37;1609876;88;24730;-88
2022/02/05 07:44:49;;;;;;;;;;;;;;;3.51;100.00;98101.04;1668789;84;22620;-88
2022/02/05 07:47:20;;;;;;;;;;;;;;;3.58;100.00;98103.73;1630435;87;26784;-88
2022/02/05 07:49:45;;;;;;;;;;;;;;;3.66;100.00;98109.37;1575356;88;24512;-85
2022/02/05 07:52:12;;;;;;;;;;;;;;;3.71;100.00;98108.69;1624146;87;20237;-86
2022/02/05 07:54:39;;;;;;;;;;;;;;;3.77;100.00;98109.24;1623800;87;24667;-88
2022/02/05 07:57:05;;;;;;;;;;;;;;;3.82;100.00;98119.37;1627678;86;22168;-88
2022/02/05 07:59:32;;;;;;;;;;;;;;;3.85;100.00;98120.54;1607018;88;26077;-88
2022/02/05 08:01:58;;;;;;;;;;;;;;;3.87;100.00;98117.43;1616259;87;24979;-90
2022/02/05 08:04:27;;;;;;;;;;;;;;;3.88;100.00;98127.30;1625371;87;20307;-91
2022/02/05 08:07:02;;;;;;;;;;;;;;;3.86;100.00;98130.44;1635636;86;24841;-91
2022/02/05 08:09:46;;;;;;;;;;;;;;;3.85;100.00;98130.89;1628448;86;22004;-88
2022/02/05 08:12:02;;;;;;;;;;;;;;;3.85;100.00;98130.05;1628785;87;26802;-89
2022/02/05 08:14:27;;;;;;;;;;;;;;;3.85;100.00;98136.07;1627848;86;24456;-85
2022/02/05 08:17:15;;;;;;;;;;;;;;;3.88;100.00;98138.95;1642203;86;20305;-89
2022/02/05 08:19:42;;;;;;;;;;;;;;;3.94;100.00;98136.91;1601510;88;25449;-87
2022/02/05 08:22:08;;;;;;;;;;;;;;;4.07;100.00;98141.05;1653748;85;22106;-87
2022/02/05 08:24:34;;;;;;;;;;;;;;;4.18;100.00;98151.28;1662630;85;26061;-87
2022/02/05 08:27:00;;;;;;;;;;;;;;;4.29;100.00;98146.02;1611708;86;20352;-89
2022/02/05 08:29:26;;;;;;;;;;;;;;;4.36;100.00;98148.25;1637256;86;20219;-88
2022/02/05 08:31:52;;;;;;;;;;;;;;;4.36;100.00;98150.84;1660224;84;24746;-89
2022/02/05 08:34:19;;;;;;;;;;;;;;;4.35;100.00;98150.91;1642608;86;20298;-88
2022/02/05 08:36:46;;;;;;;;;;;;;;;4.38;100.00;98154.17;1612783;88;25979;-90
2022/02/05 08:39:13;;;;;;;;;;;;;;;4.41;100.00;98153.20;1659785;85;24572;-87
2022/02/05 08:41:40;;;;;;;;;;;;;;;4.46;100.00;98159.83;1637083;86;20231;-86
2022/02/05 08:44:06;;;;;;;;;;;;;;;4.49;100.00;98157.07;1643907;86;24816;-88
2022/02/05 08:46:35;;;;;;;;;;;;;;;4.52;100.00;98158.69;1641284;86;22046;-90
2022/02/05 08:49:01;;;;;;;;;;;;;;;4.55;100.00;98165.84;1639006;86;20978;-89
2022/02/05 08:51:27;;;;;;;;;;;;;;;4.60;100.00;98162.56;1600013;88;24432;-85
2022/02/05 08:53:54;;;;;;;;;;;;;;;4.64;100.00;98161.48;1641984;86;20327;-84
2022/02/05 08:56:23;;;;;;;;;;;;;;;4.69;100.00;98160.44;1639763;86;24875;-90
2022/02/05 08:58:51;;;;;;;;;;;;;;;4.74;100.00;98163.63;1635161;86;21990;-84
2022/02/05 09:01:23;;;;;;;;;;;;;;;4.75;100.00;98166.12;1638393;86;26096;-85
2022/02/05 09:03:58;;;;;;;;;;;;;;;4.74;100.00;98163.63;1603715;88;24483;-86
2022/02/05 09:06:19;;;;;;;;;;;;;;;4.75;100.00;98161.39;1630435;86;20239;-85
2022/02/05 09:08:52;;;;;;;;;;;;;;;4.72;100.00;98155.92;1586264;90;25027;-84
2022/02/05 09:16:39;;;;;;;;;;;;;;;4.78;100.00;98163.84;1614383;87;25515;-87
2022/02/05 09:19:05;;;;;;;;;;;;;;;4.76;100.00;98165.21;1597706;89;20211;-87
2022/02/05 09:21:31;;;;;;;;;;;;;;;4.73;100.00;98171.86;1665195;85;24806;-87
2022/02/05 09:23:59;;;;;;;;;;;;;;;4.74;100.00;98171.41;1667989;85;21964;-87
2022/02/05 09:26:34;;;;;;;;;;;;;;;4.76;100.00;98172.14;1667871;85;26054;-87
2022/02/05 09:29:10;;;;;;;;;;;;;;;4.74;100.00;98180.48;1627701;86;24426;-87
2022/02/05 09:31:34;;;;;;;;;;;;;;;4.76;100.00;98195.47;1623254;86;20253;-87
2022/02/05 09:34:00;;;;;;;;;;;;;;;4.78;100.00;98192.36;1589817;90;25498;-87
2022/02/05 09:36:27;;;;;;;;;;;;;;;4.80;100.00;98189.24;1596383;89;21997;-87
2022/02/05 09:38:54;;;;;;;;;;;;;;;4.82;100.00;98186.94;1596544;90;26109;-87
2022/02/05 09:41:20;;;;;;;;;;;;;;;4.85;100.00;98180.31;1630456;86;24448;-87
2022/02/05 09:43:47;;;;;;;;;;;;;;;4.90;100.00;98173.14;1620618;85;20352;-87
2022/02/05 09:46:15;;;;;;;;;;;;;;;4.92;100.00;98171.74;1589432;89;24821;-86
2022/02/05 09:48:43;;;;;;;;;;;;;;;4.97;100.00;98174.94;1589117;89;22866;-87
2022/02/05 09:51:15;;;;;;;;;;;;;;;5.04;100.00;98171.12;1624118;86;26209;-87
2022/02/05 09:53:40;;;;;;;;;;;;;;;5.09;100.00;98170.42;1633080;86;24466;-87
2022/02/05 09:56:06;;;;;;;;;;;;;;;5.11;100.00;98166.45;1618594;86;20421;-87
2022/02/05 09:58:32;;;;;;;;;;;;;;;5.16;100.00;98176.97;1591391;88;20239;-86
2022/02/05 10:01:00;;;;;;;;;;;;;;;5.21;100.00;98173.67;1613307;87;21957;-87
2022/02/05 10:03:31;;;;;;;;;;;;;;;5.24;100.00;98170.91;1617216;87;26059;-87
2022/02/05 10:06:06;;;;;;;;;;;;;;;5.29;100.00;98170.69;1598187;88;25240;-86
2022/02/05 10:08:33;;;;;;;;;;;;;;;5.28;99.80;98162.07;1627950;86;20217;-87
2022/02/05 10:10:59;;;;;;;;;;;;;;;5.26;99.33;98169.54;1655930;84;24800;-87
2022/02/05 10:13:27;;;;;;;;;;;;;;;5.27;98.89;98165.58;1678190;84;22016;-86
2022/02/05 10:15:54;;;;;;;;;;;;;;;5.34;98.62;98169.53;1652453;86;26859;-86
2022/02/05 10:18:25;;;;;;;;;;;;;;;5.37;98.30;98166.76;1643440;86;24775;-86
2022/02/05 10:20:52;;;;;;;;;;;;;;;5.37;97.87;98166.76;1631721;86;20274;-87
2022/02/05 10:23:19;;;;;;;;;;;;;;;5.36;97.44;98162.48;1600745;88;25620;-87
2022/02/05 10:25:47;;;;;;;;;;;;;;;5.37;96.97;98165.46;1606953;88;22778;-86
2022/02/05 10:28:13;;;;;;;;;;;;;;;5.36;96.47;98153.41;1633979;87;26842;-87
2022/02/05 10:30:42;;;;;;;;;;;;;;;5.38;95.85;98161.95;1644264;86;25240;-86
2022/02/05 10:33:13;;;;;;;;;;;;;;;5.45;95.41;98156.80;1666610;84;20349;-86
2022/02/05 10:35:49;;;;;;;;;;;;;;;5.51;95.11;98158.71;1664123;84;24848;-86
2022/02/05 10:38:33;;;;;;;;;;;;;;;5.52;94.75;98165.09;1668633;84;22014;-86
2022/02/05 10:43:11;;;;;;;;;;;;;;;5.45;93.87;98165.88;1668705;84;24409;-87
2022/02/05 10:45:41;;;;;;;;;;;;;;;5.35;93.27;98169.88;1663146;84;20682;-86
2022/02/05 10:48:09;;;;;;;;;;;;;;;5.28;92.69;98172.45;1624377;87;24767;-87
2022/02/05 10:50:35;;;;;;;;;;;;;;;5.20;92.05;98168.11;1654574;84;21986;-87
2022/02/05 10:53:07;;;;;;;;;;;;;;;5.12;91.39;98176.77;1662402;84;26052;-87
2022/02/05 10:55:43;;;;;;;;;;;;;;;5.08;90.88;98182.16;1665469;84;38584;-86
2022/02/05 11:05:50;;;;;;;;;;;;;;;5.05;89.59;98175.39;1635098;85;25962;-87
2022/02/05 11:08:20;;;;;;;;;;;;;;;5.04;89.28;98175.84;1661040;85;25114;-87
2022/02/05 11:21:23;;;;;;;;;;;;;;;5.12;88.39;98178.06;1591860;88;25373;-84
2022/02/05 11:23:51;;;;;;;;;;;;;;;5.12;88.18;98181.95;1624943;87;20218;-84
2022/02/05 11:26:21;;;;;;;;;;;;;;;5.16;87.98;98181.32;1628347;85;24845;-85
2022/02/05 11:28:49;;;;;;;;;;;;;;;5.20;87.77;98190.61;1628899;86;22165;-84
2022/02/05 11:31:37;;;;;;;;;;;;;;;5.20;87.48;98192.75;1613408;87;21316;-84
2022/02/05 11:34:18;;;;;;;;;;;;;;;5.22;87.20;98190.08;1633380;86;24551;-84
2022/02/05 11:36:48;;;;;;;;;;;;;;;5.27;86.98;98204.48;1623702;86;20562;-84
2022/02/05 11:39:17;;;;;;;;;;;;;;;5.30;86.80;98190.05;1632341;86;25486;-84
2022/02/05 11:41:45;;;;;;;;;;;;;;;5.34;86.56;98196.77;1622525;87;22036;-84
2022/02/05 11:44:16;;;;;;;;;;;;;;;5.42;86.43;98193.75;1626805;86;26053;-84
2022/02/05 11:46:44;;;;;;;;;;;;;;;5.51;86.32;98198.45;1626704;86;25929;-84
2022/02/05 11:49:10;;;;;;;;;;;;;;;5.68;86.31;98211.37;1603349;88;20238;-85
2022/02/05 11:51:46;;;;;;;;;;;;;;;5.77;86.29;98205.70;1630802;86;20291;-84
2022/02/05 11:54:17;;;;;;;;;;;;;;;5.79;86.10;98201.70;1596707;88;22034;-84
2022/02/05 11:57:02;;;;;;;;;;;;;;;5.76;85.75;98198.83;1656814;85;26018;-84
2022/02/05 11:59:34;;;;;;;;;;;;;;;5.74;85.41;98204.55;1660157;84;24742;-84
2022/02/05 12:02:16;;;;;;;;;;;;;;;5.73;85.07;98212.41;1661667;85;20172;-84
2022/02/05 12:04:49;;;;;;;;;;;;;;;5.72;84.77;98207.71;1660927;85;24802;-89
2022/02/05 12:07:18;;;;;;;;;;;;;;;5.73;84.49;98215.01;1622942;86;21732;-89
2022/02/05 12:09:47;;;;;;;;;;;;;;;5.70;84.22;98212.59;1622937;86;25919;-89
2022/02/05 12:12:35;;;;;;;;;;;;;;;5.67;83.99;98209.72;1588505;89;24566;-89
2022/02/05 12:15:16;;;;;;;;;;;;;;;5.64;83.73;98203.38;1587621;90;20279;-89
2022/02/05 12:20:58;;;;;;;;;;;;;;;5.56;83.05;98206.86;1670395;85;21966;-89
2022/02/05 12:26:25;;;;;;;;;;;;;;;5.46;82.46;98218.16;1655089;85;25384;-89
2022/02/05 12:28:50;;;;;;;;;;;;;;;5.47;82.28;98225.03;1657007;85;20210;-89
2022/02/05 12:31:18;;;;;;;;;;;;;;;5.39;82.07;98214.23;1654826;85;24778;-90
2022/02/05 12:33:48;;;;;;;;;;;;;;;5.36;81.83;98210.48;1632484;86;22110;-89
2022/02/05 12:36:17;;;;;;;;;;;;;;;5.35;81.62;98214.45;1674109;85;26191;-89
2022/02/05 12:38:46;;;;;;;;;;;;;;;5.29;81.40;98212.20;1607443;86;24448;-89
2022/02/05 12:41:12;;;;;;;;;;;;;;;5.24;81.09;98223.25;1628583;86;20485;-90
2022/02/05 12:43:57;;;;;;;;;;;;;;;5.18;80.80;98211.47;1582231;90;24811;-89
2022/02/05 12:46:31;;;;;;;;;;;;;;;5.13;80.54;98209.53;1589051;90;22036;-88
2022/02/05 12:49:06;;;;;;;;;;;;;;;5.12;80.39;98217.42;1591978;88;26104;-90
2022/02/05 12:51:27;;;;;;;;;;;;;;;5.16;80.33;98214.58;1587877;88;25281;-89
2022/02/05 12:54:11;;;;;;;;;;;;;;;5.15;80.27;98223.28;1592498;88;20306;-89
2022/02/05 12:56:43;;;;;;;;;;;;;;;5.17;80.21;98220.16;1626054;86;24939;-89
2022/02/05 12:59:14;;;;;;;;;;;;;;;5.19;80.21;98215.70;1597933;88;22049;-88
2022/02/05 13:02:00;;;;;;;;;;;;;;;5.20;80.17;98225.63;1609237;86;26125;-89
2022/02/05 13:04:30;;;;;;;;;;;;;;;5.20;80.14;98223.88;1589792;88;24493;-90
2022/02/05 13:07:00;;;;;;;;;;;;;;;5.22;80.10;98231.13;1643342;86;20300;-89
2022/02/05 13:09:32;;;;;;;;;;;;;;;5.22;80.05;98229.84;1601977;88;24843;-89
2022/02/05 13:12:03;;;;;;;;;;;;;;;5.17;79.96;98229.23;1666862;85;22038;-89
2022/02/05 13:14:50;;;;;;;;;;;;;;;5.18;79.89;98232.67;1647711;85;26905;-89
2022/02/05 13:26:07;;;;;;;;;;;;;;;5.18;79.70;98224.44;1653606;86;22773;-90
2022/02/05 13:33:58;;;;;;;;;;;;;;;5.07;79.21;98234.52;1675888;85;20247;-89
2022/02/05 13:36:22;;;;;;;;;;;;;;;5.08;79.14;98234.88;1604728;87;25508;-89
2022/02/05 13:41:48;;;;;;;;;;;;;;;5.07;79.01;98230.63;1653120;86;21653;-89
2022/02/05 13:44:13;;;;;;;;;;;;;;;5.03;78.80;98233.81;1646687;86;24574;-89
2022/02/05 13:46:38;;;;;;;;;;;;;;;5.05;78.72;98234.59;1652250;86;20285;-89
2022/02/05 13:49:15;;;;;;;;;;;;;;;5.07;78.65;98224.59;1651090;86;24893;-88
2022/02/05 13:51:45;;;;;;;;;;;;;;;5.09;78.61;98226.18;1652691;86;22340;-88
2022/02/05 13:54:20;;;;;;;;;;;;;;;5.09;78.57;98226.18;1654035;86;25979;-88
2022/02/05 13:56:46;;;;;;;;;;;;;;;5.13;78.56;98226.88;1654473;86;24536;-89
2022/02/05 13:59:22;;;;;;;;;;;;;;;5.17;78.55;98226.64;1627025;86;20215;-88
2022/02/05 14:01:49;;;;;;;;;;;;;;;5.25;78.62;98233.55;1655752;86;24761;-89
2022/02/05 14:04:23;;;;;;;;;;;;;;;5.34;78.65;98225.77;1653530;86;21423;-89
2022/02/05 14:06:58;;;;;;;;;;;;;;;5.42;78.64;98223.59;1602639;88;26977;-89
2022/02/05 14:09:25;;;;;;;;;;;;;;;5.53;78.61;98236.01;1639718;86;24758;-88
2022/02/05 14:11:52;;;;;;;;;;;;;;;5.62;78.58;98230.35;1649356;86;20255;-89
2022/02/05 14:14:28;;;;;;;;;;;;;;;5.70;78.51;98227.71;1631166;86;24795;-89
2022/02/05 14:16:55;;;;;;;;;;;;;;;5.81;78.36;98237.52;1592068;88;22012;-89
2022/02/05 14:19:28;;;;;;;;;;;;;;;5.86;78.16;98235.52;1610034;88;26036;-89
2022/02/05 14:21:57;;;;;;;;;;;;;;;5.85;77.84;98237.73;1606489;88;24421;-89
2022/02/05 14:24:29;;;;;;;;;;;;;;;5.84;77.51;98241.23;1609844;88;20240;-89
2022/02/05 14:27:11;;;;;;;;;;;;;;;5.83;77.15;98227.45;1667269;84;24886;-89
2022/02/05 14:32:59;;;;;;;;;;;;;;;5.77;76.24;98250.30;1664070;84;26200;-88
2022/02/05 14:35:01;;;;;;;;;;;;;;;5.71;75.85;98257.95;1633621;86;24527;-88
2022/02/05 14:42:37;;;;;;;;;;;;;;;5.57;74.99;98268.66;1653389;84;22048;-89
2022/02/05 14:45:03;;;;;;;;;;;;;;;5.48;74.70;98268.23;1657425;84;25732;-89
2022/02/05 14:47:37;;;;;;;;;;;;;;;5.40;74.40;98260.00;1641138;86;24422;-87
2022/02/05 14:50:11;;;;;;;;;;;;;;;5.34;74.15;98273.31;1611939;88;20265;-88
2022/02/05 14:52:37;;;;;;;;;;;;;;;5.28;73.92;98276.67;1663504;84;24829;-87
2022/02/05 14:55:04;;;;;;;;;;;;;;;5.22;73.72;98281.72;1662677;84;22054;-88
2022/02/05 14:57:32;;;;;;;;;;;;;;;5.22;73.64;98293.39;1629208;85;22971;-88
2022/02/05 15:00:03;;;;;;;;;;;;;;;5.24;73.67;98291.99;1662124;84;24458;-90
2022/02/05 15:02:30;;;;;;;;;;;;;;;5.26;73.70;98290.17;1648041;86;20501;-87
2022/02/05 15:04:56;;;;;;;;;;;;;;;5.19;73.61;98288.34;1661654;84;24759;-87
2022/02/05 15:07:23;;;;;;;;;;;;;;;5.17;73.56;98290.20;1638460;86;21931;-87
2022/02/05 15:09:56;;;;;;;;;;;;;;;5.10;73.49;98303.08;1594731;88;26069;-89
2022/02/05 15:12:22;;;;;;;;;;;;;;;5.03;73.38;98305.59;1653684;85;24522;-86
2022/02/05 15:14:52;;;;;;;;;;;;;;;4.94;73.27;98313.83;1645707;84;20212;-87
2022/02/05 15:17:15;;;;;;;;;;;;;;;4.87;73.17;98312.44;1646358;84;25583;-86
2022/02/05 15:19:41;;;;;;;;;;;;;;;4.83;73.11;98315.66;1663887;84;20314;-87
2022/02/05 15:22:07;;;;;;;;;;;;;;;4.81;73.12;98327.00;1659507;84;26017;-87
2022/02/05 15:24:33;;;;;;;;;;;;;;;4.80;73.17;98327.45;1665281;84;20277;-87
2022/02/05 15:27:01;;;;;;;;;;;;;;;4.76;73.19;98327.67;1657485;84;20267;-87
2022/02/05 15:29:27;;;;;;;;;;;;;;;4.73;73.17;98335.16;1662688;84;24935;-87
2022/02/05 15:31:53;;;;;;;;;;;;;;;4.72;73.14;98336.52;1637836;86;21995;-87
2022/02/05 15:34:20;;;;;;;;;;;;;;;4.71;73.18;98338.27;1636522;86;26019;-87
2022/02/05 15:44:39;;;;;;;;;;;;;;;4.66;73.25;98346.73;1633542;86;22139;-86
2022/02/05 15:47:06;;;;;;;;;;;;;;;4.64;73.30;98349.38;1597076;87;25906;-87
2022/02/05 15:49:33;;;;;;;;;;;;;;;4.61;73.35;98357.31;1643212;85;24521;-87
2022/02/05 15:51:59;;;;;;;;;;;;;;;4.57;73.39;98349.31;1671088;85;20298;-86
2022/02/05 15:54:28;;;;;;;;;;;;;;;4.57;73.43;98356.23;1666839;84;24800;-87
2022/02/05 15:57:18;;;;;;;;;;;;;;;4.55;73.49;98359.34;1663870;85;22135;-87
2022/02/05 15:59:53;;;;;;;;;;;;;;;4.54;73.57;98361.09;1663363;85;26065;-86
2022/02/05 16:02:08;;;;;;;;;;;;;;;4.52;73.61;98369.87;1664199;85;24535;-86
2022/02/05 16:04:38;;;;;;;;;;;;;;;4.48;73.66;98383.41;1631753;86;20309;-87
2022/02/05 16:07:05;;;;;;;;;;;;;;;4.48;73.74;98398.95;1640250;86;24812;-87
2022/02/05 16:09:31;;;;;;;;;;;;;;;4.46;73.84;98411.16;1651807;86;22236;-86
2022/02/05 16:12:03;;;;;;;;;;;;;;;4.46;73.97;98421.97;1650359;86;26865;-87